createdAt,value
2019-02-10T00:00:56.314Z,97870.25
2019-02-10T00:03:25.173Z,97864.59
2019-02-10T00:05:53.378Z,97877.13
2019-02-10T00:08:21.637Z,97876.31
2019-02-10T00:10:49.928Z,97875.48
2019-02-10T00:13:31.988Z,97882.39
2019-02-10T00:16:01.402Z,97875.49
2019-02-10T00:18:29.573Z,97876.34
2019-02-10T00:20:57.616Z,97879.42
2019-02-10T00:23:25.999Z,97875.52
2019-02-10T00:25:54.129Z,97881.14
2019-02-10T00:28:22.039Z,97889.37
2019-02-10T00:30:50.091Z,97875.89
2019-02-10T00:33:18.075Z,97871.98
2019-02-10T00:35:46.578Z,97861.55
2019-02-10T00:38:14.888Z,97855.06
2019-02-10T00:40:43.008Z,97869.27
2019-02-10T00:43:11.035Z,97867.84
2019-02-10T00:45:39.075Z,97862.58
2019-02-10T00:48:07.176Z,97862.09
2019-02-10T00:50:34.949Z,97857.23
2019-02-10T00:53:03.092Z,97853.22
2019-02-10T00:55:31.012Z,97835.52
2019-02-10T00:57:59.029Z,97849.28
2019-02-10T01:00:27.862Z,97857.55
2019-02-10T01:02:55.784Z,97854.10
2019-02-10T01:05:23.646Z,97848.42
2019-02-10T01:07:51.727Z,97840.60
2019-02-10T01:10:20.390Z,97839.73
2019-02-10T01:12:48.482Z,97839.76
2019-02-10T01:15:16.350Z,97836.30
2019-02-10T01:17:44.336Z,97830.20
2019-02-10T01:20:12.307Z,97825.86
2019-02-10T01:22:40.370Z,97826.75
2019-02-10T01:25:08.663Z,97832.52
2019-02-10T01:27:36.714Z,97831.84
2019-02-10T01:30:05.878Z,97828.78
2019-02-10T01:32:33.977Z,97820.91
2019-02-10T01:35:01.891Z,97810.03
2019-02-10T01:37:33.273Z,97813.06
2019-02-10T01:40:01.422Z,97803.06
2019-02-10T01:42:29.524Z,97803.95
2019-02-10T01:44:57.560Z,97804.41
2019-02-10T01:47:25.805Z,97802.13
2019-02-10T01:49:53.789Z,97789.44
2019-02-10T01:52:21.663Z,97795.14
2019-02-10T01:54:49.536Z,97795.25
2019-02-10T01:57:17.531Z,97795.70
2019-02-10T01:59:45.493Z,97796.92
2019-02-10T02:02:13.882Z,97793.89
2019-02-10T02:04:42.032Z,97786.08
2019-02-10T02:07:10.434Z,97776.91
2019-02-10T02:09:38.360Z,97771.70
2019-02-10T02:12:06.278Z,97781.57
2019-02-10T02:14:34.344Z,97779.66
2019-02-10T02:17:02.228Z,97776.09
2019-02-10T02:19:30.285Z,97767.98
2019-02-10T02:21:58.365Z,97766.97
2019-02-10T02:24:26.562Z,97774.16
2019-02-10T02:26:54.808Z,97763.61
2019-02-10T02:29:22.765Z,97760.57
2019-02-10T02:31:51.048Z,97751.44
2019-02-10T02:34:19.110Z,97753.22
2019-02-10T02:36:47.068Z,97752.59
2019-02-10T02:39:15.189Z,97753.55
2019-02-10T02:41:43.547Z,97759.60
2019-02-10T02:44:11.595Z,97759.55
2019-02-10T02:46:39.761Z,97763.42
2019-02-10T02:49:07.662Z,97752.71
2019-02-10T02:51:35.865Z,97751.67
2019-02-10T02:54:03.810Z,97743.88
2019-02-10T02:56:31.981Z,97735.24
2019-02-10T02:59:01.578Z,97733.92
2019-02-10T03:01:29.819Z,97721.33
2019-02-10T03:03:58.018Z,97708.88
2019-02-10T03:06:28.288Z,97726.08
2019-02-10T03:08:56.388Z,97721.73
2019-02-10T03:11:24.469Z,97720.43
2019-02-10T03:13:52.491Z,97719.48
2019-02-10T03:16:21.770Z,97728.61
2019-02-10T03:18:53.250Z,97720.00
2019-02-10T03:21:19.796Z,97719.12
2019-02-10T03:23:47.602Z,97719.98
2019-02-10T03:26:15.630Z,97721.29
2019-02-10T03:28:43.362Z,97720.36
2019-02-10T03:31:11.287Z,97713.41
2019-02-10T03:33:39.110Z,97711.23
2019-02-10T03:36:06.974Z,97704.72
2019-02-10T03:38:35.177Z,97704.67
2019-02-10T03:41:03.111Z,97686.38
2019-02-10T03:43:31.252Z,97696.29
2019-02-10T03:45:59.082Z,97691.98
2019-02-10T03:48:26.984Z,97688.05
2019-02-10T03:50:54.990Z,97686.26
2019-02-10T03:53:22.834Z,97687.17
2019-02-10T03:55:51.261Z,97681.14
2019-02-10T03:58:19.325Z,97676.82
2019-02-10T04:00:47.398Z,97681.12
2019-02-10T04:03:15.266Z,97680.24
2019-02-10T04:05:43.119Z,97676.36
2019-02-10T04:08:11.109Z,97678.20
2019-02-10T04:10:38.877Z,97678.66
2019-02-10T04:13:06.982Z,97682.13
2019-02-10T04:15:35.334Z,97676.76
2019-02-10T04:18:03.372Z,97681.32
2019-02-10T04:20:31.240Z,97685.19
2019-02-10T04:22:59.307Z,97686.06
2019-02-10T04:25:27.307Z,97683.48
2019-02-10T04:27:55.393Z,97678.96
2019-02-10T04:30:23.532Z,97691.08
2019-02-10T04:32:51.556Z,97685.93
2019-02-10T04:35:19.740Z,97685.49
2019-02-10T04:37:47.749Z,97683.30
2019-02-10T04:40:15.972Z,97681.23
2019-02-10T04:42:44.290Z,97682.91
2019-02-10T04:45:12.289Z,97674.59
2019-02-10T04:47:40.790Z,97669.77
2019-02-10T04:50:08.679Z,97674.61
2019-02-10T04:52:36.749Z,97664.13
2019-02-10T04:55:05.067Z,97656.73
2019-02-10T04:57:32.985Z,97657.17
2019-02-10T05:00:01.168Z,97649.36
2019-02-10T05:02:29.221Z,97642.91
2019-02-10T05:04:57.072Z,97643.73
2019-02-10T05:07:25.068Z,97648.92
2019-02-10T05:09:53.018Z,97639.44
2019-02-10T05:12:21.250Z,97637.73
2019-02-10T05:14:49.272Z,97634.12
2019-02-10T05:17:17.446Z,97633.31
2019-02-10T05:19:45.326Z,97629.02
2019-02-10T05:22:13.297Z,97623.00
2019-02-10T05:24:42.202Z,97617.30
2019-02-10T05:27:10.130Z,97628.10
2019-02-10T05:29:38.142Z,97621.55
2019-02-10T05:32:05.977Z,97628.70
2019-02-10T05:34:34.294Z,97621.77
2019-02-10T05:37:02.455Z,97619.23
2019-02-10T05:39:30.432Z,97609.83
2019-02-10T05:41:58.470Z,97609.50
2019-02-10T05:44:26.264Z,97602.31
2019-02-10T05:46:54.409Z,97605.02
2019-02-10T05:49:22.274Z,97596.74
2019-02-10T05:51:50.644Z,97595.36
2019-02-10T05:54:18.526Z,97597.24
2019-02-10T05:56:46.479Z,97597.60
2019-02-10T05:59:15.417Z,97598.78
2019-02-10T06:01:59.612Z,97592.77
2019-02-10T06:04:27.486Z,97594.92
2019-02-10T06:06:57.457Z,97596.64
2019-02-10T06:09:25.515Z,97590.53
2019-02-10T06:11:53.450Z,97588.81
2019-02-10T06:14:21.416Z,97589.14
2019-02-10T06:16:49.526Z,97586.48
2019-02-10T06:19:17.505Z,97573.89
2019-02-10T06:21:45.483Z,97571.67
2019-02-10T06:24:14.451Z,97574.52
2019-02-10T06:26:42.302Z,97568.83
2019-02-10T06:29:10.480Z,97555.30
2019-02-10T06:31:38.449Z,97559.16
2019-02-10T06:34:06.483Z,97550.48
2019-02-10T06:36:34.508Z,97553.95
2019-02-10T06:39:03.972Z,97557.04
2019-02-10T06:41:31.900Z,97546.58
2019-02-10T06:44:00.134Z,97550.36
2019-02-10T06:46:28.149Z,97545.18
2019-02-10T06:48:56.128Z,97557.02
2019-02-10T06:51:24.203Z,97565.81
2019-02-10T06:53:52.302Z,97565.67
2019-02-10T06:56:20.432Z,97560.63
2019-02-10T06:58:48.408Z,97552.58
2019-02-10T07:01:24.017Z,97552.52
2019-02-10T07:03:57.234Z,97541.57
2019-02-10T07:06:25.421Z,97539.25
2019-02-10T07:08:53.358Z,97540.92
2019-02-10T07:11:21.379Z,97543.69
2019-02-10T07:13:52.018Z,97544.06
2019-02-10T07:16:34.283Z,97538.31
2019-02-10T07:19:38.958Z,97530.33
2019-02-10T07:22:53.332Z,97529.36
2019-02-10T07:26:05.402Z,97530.94
2019-02-10T07:29:20.777Z,97526.76
2019-02-10T07:32:10.296Z,97526.55
2019-02-10T07:35:14.504Z,97531.49
2019-02-10T07:37:58.841Z,97531.75
2019-02-10T07:41:16.592Z,97529.94
2019-02-10T07:44:25.859Z,97523.61
2019-02-10T07:47:25.660Z,97536.47
2019-02-10T07:50:32.850Z,97536.18
2019-02-10T07:53:23.628Z,97536.99
2019-02-10T07:56:29.332Z,97534.73
2019-02-10T07:59:25.294Z,97535.28
2019-02-10T08:02:37.472Z,97533.32
2019-02-10T08:05:27.796Z,97534.97
2019-02-10T08:08:49.475Z,97523.03
2019-02-10T08:11:49.474Z,97516.54
2019-02-10T08:14:34.744Z,97511.55
2019-02-10T08:17:12.319Z,97507.29
2019-02-10T08:20:08.488Z,97506.98
2019-02-10T08:22:59.372Z,97491.50
2019-02-10T08:25:55.717Z,97490.19
2019-02-10T08:29:26.135Z,97480.63
2019-02-10T08:32:30.790Z,97476.50
2019-02-10T08:35:13.784Z,97457.04
2019-02-10T08:38:12.900Z,97454.34
2019-02-10T08:41:24.977Z,97446.28
2019-02-10T08:44:36.721Z,97450.11
2019-02-10T08:47:54.247Z,97444.25
2019-02-10T08:50:46.162Z,97440.69
2019-02-10T08:53:18.488Z,97435.26
2019-02-10T08:55:46.805Z,97428.27
2019-02-10T08:58:14.676Z,97434.00
2019-02-10T09:00:42.753Z,97422.19
2019-02-10T09:03:10.938Z,97418.44
2019-02-10T09:05:38.905Z,97418.56
2019-02-10T09:08:07.003Z,97410.36
2019-02-10T09:10:34.970Z,97410.84
2019-02-10T09:13:02.925Z,97404.86
2019-02-10T09:15:30.982Z,97406.52
2019-02-10T09:17:58.855Z,97398.70
2019-02-10T09:20:26.770Z,97403.17
2019-02-10T09:22:54.790Z,97400.16
2019-02-10T09:25:22.900Z,97387.61
2019-02-10T09:27:51.060Z,97381.61
2019-02-10T09:30:20.042Z,97374.70
2019-02-10T09:32:47.840Z,97361.39
2019-02-10T09:35:15.698Z,97362.11
2019-02-10T09:37:43.862Z,97355.19
2019-02-10T09:40:12.086Z,97351.52
2019-02-10T09:42:40.015Z,97335.70
2019-02-10T09:45:09.861Z,97328.35
2019-02-10T09:47:37.988Z,97337.95
2019-02-10T09:50:08.819Z,97339.66
2019-02-10T09:52:36.899Z,97337.16
2019-02-10T09:55:05.007Z,97335.08
2019-02-10T09:57:32.936Z,97333.80
2019-02-10T10:00:00.814Z,97336.73
2019-02-10T10:02:28.729Z,97321.65
2019-02-10T10:04:56.742Z,97329.99
2019-02-10T10:07:24.808Z,97333.24
2019-02-10T10:09:52.687Z,97325.75
2019-02-10T10:12:20.737Z,97316.06
2019-02-10T10:14:48.756Z,97303.16
2019-02-10T10:17:16.649Z,97312.46
2019-02-10T10:19:44.659Z,97296.19
2019-02-10T10:22:12.910Z,97295.55
2019-02-10T10:24:41.073Z,97293.93
2019-02-10T10:27:09.051Z,97283.77
2019-02-10T10:29:37.173Z,97273.06
2019-02-10T10:32:05.223Z,97291.24
2019-02-10T10:34:33.573Z,97281.25
2019-02-10T10:37:01.840Z,97284.67
2019-02-10T10:39:29.781Z,97266.58
2019-02-10T10:41:57.653Z,97264.86
2019-02-10T10:44:25.623Z,97261.78
2019-02-10T10:46:53.655Z,97249.64
2019-02-10T10:49:21.648Z,97236.19
2019-02-10T10:51:49.492Z,97234.86
2019-02-10T10:54:17.359Z,97233.61
2019-02-10T10:56:45.277Z,97225.16
2019-02-10T10:59:13.251Z,97218.97
2019-02-10T11:01:41.262Z,97201.44
2019-02-10T11:04:09.261Z,97192.97
2019-02-10T11:06:37.134Z,97180.48
2019-02-10T11:09:06.371Z,97174.00
2019-02-10T11:11:34.376Z,97162.37
2019-02-10T11:14:02.263Z,97155.52
2019-02-10T11:16:30.142Z,97140.45
2019-02-10T11:18:58.125Z,97135.55
2019-02-10T11:21:26.153Z,97134.53
2019-02-10T11:23:54.172Z,97123.84
2019-02-10T11:26:22.327Z,97129.52
2019-02-10T11:28:50.396Z,97124.52
2019-02-10T11:31:18.486Z,97123.80
2019-02-10T11:33:46.519Z,97111.00
2019-02-10T11:36:14.753Z,97101.34
2019-02-10T11:38:42.646Z,97085.09
2019-02-10T11:41:10.937Z,97066.59
2019-02-10T11:43:38.880Z,97050.59
2019-02-10T11:46:07.016Z,97042.00
2019-02-10T11:48:35.120Z,97049.84
2019-02-10T11:51:03.064Z,97045.77
2019-02-10T11:53:31.277Z,97036.60
2019-02-10T11:55:59.549Z,97035.44
2019-02-10T11:58:27.677Z,97026.28
2019-02-10T12:00:55.628Z,97019.36
2019-02-10T12:03:23.558Z,97011.58
2019-02-10T12:05:51.360Z,97020.14
2019-02-10T12:08:19.568Z,97011.38
2019-02-10T12:10:47.448Z,97002.53
2019-02-10T12:13:15.372Z,96998.81
2019-02-10T12:15:43.180Z,96974.59
2019-02-10T12:18:11.277Z,96981.86
2019-02-10T12:20:39.088Z,96989.19
2019-02-10T12:23:07.189Z,96988.07
2019-02-10T12:25:35.203Z,96983.37
2019-02-10T12:28:03.463Z,96970.22
2019-02-10T12:30:31.239Z,96961.66
2019-02-10T12:32:59.412Z,96933.94
2019-02-10T12:35:27.556Z,96937.67
2019-02-10T12:37:55.731Z,96928.70
2019-02-10T12:40:23.908Z,96914.65
2019-02-10T12:42:51.894Z,96913.13
2019-02-10T12:45:19.741Z,96908.23
2019-02-10T12:47:47.666Z,96904.73
2019-02-10T12:50:15.943Z,96899.84
2019-02-10T12:52:43.984Z,96899.84
2019-02-10T12:55:12.200Z,96898.32
2019-02-10T12:57:40.067Z,96886.69
2019-02-10T13:00:11.745Z,96894.92
2019-02-10T13:02:39.773Z,96895.72
2019-02-10T13:05:07.654Z,96885.27
2019-02-10T13:07:35.518Z,96887.57
2019-02-10T13:10:08.248Z,96888.73
2019-02-10T13:12:34.037Z,96878.37
2019-02-10T13:15:02.429Z,96869.41
2019-02-10T13:17:30.474Z,96873.53
2019-02-10T13:19:58.552Z,96859.09
2019-02-10T13:22:26.647Z,96855.90
2019-02-10T13:24:54.696Z,96854.36
2019-02-10T13:27:22.746Z,96843.88
2019-02-10T13:29:50.581Z,96839.33
2019-02-10T13:32:18.474Z,96824.34
2019-02-10T13:34:46.369Z,96819.43
2019-02-10T13:37:14.758Z,96810.00
2019-02-10T13:39:43.123Z,96797.75
2019-02-10T13:42:11.167Z,96816.22
2019-02-10T13:44:38.966Z,96814.89
2019-02-10T13:47:06.784Z,96802.91
2019-02-10T13:49:34.701Z,96790.50
2019-02-10T13:52:02.656Z,96782.57
2019-02-10T13:54:30.809Z,96761.58
2019-02-10T13:56:58.555Z,96759.03
2019-02-10T13:59:26.650Z,96771.25
2019-02-10T14:01:54.617Z,96769.87
2019-02-10T14:04:22.580Z,96758.49
2019-02-10T14:06:50.343Z,96738.80
2019-02-10T14:09:18.367Z,96733.03
2019-02-10T14:11:46.400Z,96749.89
2019-02-10T14:14:14.463Z,96748.54
2019-02-10T14:16:42.376Z,96722.48
2019-02-10T14:19:10.146Z,96722.02
2019-02-10T14:21:38.182Z,96724.04
2019-02-10T14:24:06.117Z,96711.60
2019-02-10T14:26:34.156Z,96699.79
2019-02-10T14:29:02.150Z,96702.99
2019-02-10T14:31:30.176Z,96701.77
2019-02-10T14:33:58.135Z,96691.94
2019-02-10T14:36:26.229Z,96689.96
2019-02-10T14:38:54.162Z,96685.19
2019-02-10T14:41:22.333Z,96686.63
2019-02-10T14:43:50.250Z,96678.91
2019-02-10T14:46:18.194Z,96677.05
2019-02-10T14:48:46.284Z,96672.13
2019-02-10T14:51:14.128Z,96674.17
2019-02-10T14:53:42.176Z,96675.92
2019-02-10T14:56:10.239Z,96659.84
2019-02-10T14:58:43.141Z,96658.22
2019-02-10T15:01:07.696Z,96654.67
2019-02-10T15:03:35.729Z,96654.79
2019-02-10T15:06:03.795Z,96652.34
2019-02-10T15:08:31.368Z,96649.39
2019-02-10T15:10:59.304Z,96645.59
2019-02-10T15:13:27.180Z,96646.91
2019-02-10T15:15:55.231Z,96636.12
2019-02-10T15:18:23.104Z,96625.95
2019-02-10T15:20:50.969Z,96623.45
2019-02-10T15:23:18.841Z,96628.17
2019-02-10T15:25:46.857Z,96610.84
2019-02-10T15:28:14.882Z,96594.30
2019-02-10T15:30:43.012Z,96606.55
2019-02-10T15:33:11.178Z,96612.92
2019-02-10T15:35:41.134Z,96597.41
2019-02-10T15:38:09.158Z,96587.05
2019-02-10T15:40:37.230Z,96578.99
2019-02-10T15:43:05.082Z,96582.57
2019-02-10T15:45:33.220Z,96583.17
2019-02-10T15:48:01.168Z,96588.84
2019-02-10T15:50:28.989Z,96586.59
2019-02-10T15:52:56.959Z,96571.47
2019-02-10T15:55:24.700Z,96573.63
2019-02-10T15:57:52.692Z,96579.80
2019-02-10T16:00:22.818Z,96578.41
2019-02-10T16:02:50.955Z,96569.76
2019-02-10T16:05:18.911Z,96561.64
2019-02-10T16:07:46.916Z,96562.89
2019-02-10T16:10:14.889Z,96569.47
2019-02-10T16:12:42.950Z,96562.53
2019-02-10T16:15:10.977Z,96557.73
2019-02-10T16:17:39.159Z,96558.11
2019-02-10T16:20:08.911Z,96560.84
2019-02-10T16:22:36.906Z,96549.67
2019-02-10T16:25:04.789Z,96550.77
2019-02-10T16:27:32.827Z,96542.22
2019-02-10T16:30:00.716Z,96534.22
2019-02-10T16:32:28.728Z,96524.53
2019-02-10T16:34:56.677Z,96523.22
2019-02-10T16:37:25.430Z,96533.72
2019-02-10T16:39:53.657Z,96520.42
2019-02-10T16:42:21.499Z,96516.06
2019-02-10T16:44:49.587Z,96510.28
2019-02-10T16:47:17.524Z,96502.87
2019-02-10T16:49:45.507Z,96501.03
2019-02-10T16:52:13.580Z,96493.13
2019-02-10T16:54:41.912Z,96481.83
2019-02-10T16:57:09.925Z,96482.02
2019-02-10T16:59:38.020Z,96478.63
2019-02-10T17:02:06.043Z,96483.70
2019-02-10T17:04:34.095Z,96492.28
2019-02-10T17:07:01.988Z,96479.18
2019-02-10T17:09:30.038Z,96476.22
2019-02-10T17:11:57.840Z,96477.34
2019-02-10T17:14:25.670Z,96485.59
2019-02-10T17:16:53.649Z,96481.06
2019-02-10T17:19:21.684Z,96478.28
2019-02-10T17:21:49.794Z,96468.88
2019-02-10T17:24:17.798Z,96478.11
2019-02-10T17:26:45.626Z,96472.73
2019-02-10T17:29:13.886Z,96469.59
2019-02-10T17:31:41.935Z,96470.63
2019-02-10T17:34:12.078Z,96467.09
2019-02-10T17:36:40.065Z,96465.34
2019-02-10T17:39:12.416Z,96458.32
2019-02-10T17:41:42.661Z,96449.92
2019-02-10T17:44:10.578Z,96453.59
2019-02-10T17:46:38.427Z,96432.72
2019-02-10T17:49:06.395Z,96444.22
2019-02-10T17:51:34.413Z,96440.66
2019-02-10T17:54:02.799Z,96432.69
2019-02-10T17:56:32.016Z,96423.70
2019-02-10T17:58:59.977Z,96423.33
2019-02-10T18:01:27.959Z,96414.51
2019-02-10T18:03:55.877Z,96399.09
2019-02-10T18:06:24.910Z,96386.83
2019-02-10T18:08:52.800Z,96386.45
2019-02-10T18:11:20.665Z,96376.27
2019-02-10T18:13:48.492Z,96372.92
2019-02-10T18:16:28.051Z,96357.69
2019-02-10T18:19:10.768Z,96367.63
2019-02-10T18:22:01.146Z,96361.52
2019-02-10T18:24:35.655Z,96360.42
2019-02-10T18:27:20.176Z,96337.42
2019-02-10T18:30:06.420Z,96350.56
2019-02-10T18:33:02.736Z,96343.25
2019-02-10T18:35:45.464Z,96350.14
2019-02-10T18:38:33.002Z,96341.30
2019-02-10T18:41:19.937Z,96338.38
2019-02-10T18:44:04.019Z,96340.07
2019-02-10T18:46:50.037Z,96329.73
2019-02-10T18:49:43.468Z,96318.80
2019-02-10T18:52:19.775Z,96322.97
2019-02-10T18:55:12.808Z,96331.46
2019-02-10T18:58:00.374Z,96322.59
2019-02-10T19:00:38.136Z,96319.22
2019-02-10T19:03:28.114Z,96316.58
2019-02-10T19:06:21.598Z,96299.59
2019-02-10T19:09:04.193Z,96299.53
2019-02-10T19:11:51.013Z,96297.97
2019-02-10T19:14:35.337Z,96287.50
2019-02-10T19:17:25.731Z,96289.09
2019-02-10T19:20:24.961Z,96289.92
2019-02-10T19:23:11.039Z,96272.35
2019-02-10T19:25:48.726Z,96281.33
2019-02-10T19:28:38.709Z,96273.98
2019-02-10T19:31:44.873Z,96271.12
2019-02-10T19:34:19.729Z,96244.65
2019-02-10T19:37:07.443Z,96258.58
2019-02-10T19:39:59.108Z,96261.98
2019-02-10T19:42:52.865Z,96259.42
2019-02-10T19:45:55.352Z,96256.89
2019-02-10T19:48:48.790Z,96250.64
2019-02-10T19:51:34.988Z,96261.30
2019-02-10T19:54:30.686Z,96256.97
2019-02-10T19:57:29.804Z,96258.53
2019-02-10T20:00:15.970Z,96259.98
2019-02-10T20:02:54.194Z,96255.99
2019-02-10T20:05:32.426Z,96266.06
2019-02-10T20:08:22.358Z,96270.30
2019-02-10T20:10:57.447Z,96269.05
2019-02-10T20:13:33.757Z,96271.66
2019-02-10T20:16:30.368Z,96265.64
2019-02-10T20:19:32.662Z,96261.39
2019-02-10T20:22:31.897Z,96263.10
2019-02-10T20:25:31.630Z,96267.00
2019-02-10T20:28:19.278Z,96262.47
2019-02-10T20:31:06.659Z,96271.79
2019-02-10T20:33:50.833Z,96248.05
2019-02-10T20:36:47.186Z,96257.38
2019-02-10T20:39:30.651Z,96255.22
2019-02-10T20:42:12.307Z,96254.75
2019-02-10T20:44:58.198Z,96263.59
2019-02-10T20:47:43.883Z,96263.79
2019-02-10T20:50:31.510Z,96239.72
2019-02-10T20:53:21.582Z,96233.25
2019-02-10T20:56:11.780Z,96228.34
2019-02-10T20:58:48.449Z,96235.97
2019-02-10T21:01:34.548Z,96229.62
2019-02-10T21:04:15.330Z,96231.07
2019-02-10T21:07:17.986Z,96229.86
2019-02-10T21:09:58.580Z,96240.09
2019-02-10T21:12:36.948Z,96240.52
2019-02-10T21:15:13.896Z,96230.77
2019-02-10T21:17:59.613Z,96246.19
2019-02-10T21:20:59.556Z,96244.41
2019-02-10T21:23:38.270Z,96243.85
2019-02-10T21:26:25.790Z,96237.98
2019-02-10T21:29:10.962Z,96235.35
2019-02-10T21:31:57.280Z,96238.83
2019-02-10T21:34:49.285Z,96245.64
2019-02-10T21:37:25.108Z,96245.36
2019-02-10T21:40:16.973Z,96241.46
2019-02-10T21:43:19.608Z,96237.84
2019-02-10T21:46:09.327Z,96242.83
2019-02-10T21:48:57.090Z,96229.72
2019-02-10T21:51:24.997Z,96233.30
2019-02-10T21:53:52.894Z,96225.87
2019-02-10T21:56:20.981Z,96225.97
2019-02-10T21:58:49.005Z,96220.50
2019-02-10T22:01:16.944Z,96218.25
2019-02-10T22:03:44.925Z,96227.88
2019-02-10T22:06:12.898Z,96215.72
2019-02-10T22:08:41.037Z,96225.58
2019-02-10T22:11:09.051Z,96210.17
2019-02-10T22:13:37.014Z,96225.67
2019-02-10T22:16:06.233Z,96224.36
2019-02-10T22:18:34.314Z,96242.45
2019-02-10T22:21:02.311Z,96248.00
2019-02-10T22:23:30.391Z,96245.98
2019-02-10T22:25:58.517Z,96254.16
2019-02-10T22:28:26.543Z,96263.64
2019-02-10T22:30:54.599Z,96272.39
2019-02-10T22:33:22.768Z,96279.06
2019-02-10T22:35:50.870Z,96281.90
2019-02-10T22:38:18.779Z,96289.23
2019-02-10T22:40:46.841Z,96301.27
2019-02-10T22:43:14.750Z,96297.83
2019-02-10T22:45:45.811Z,96301.17
2019-02-10T22:48:13.848Z,96307.09
2019-02-10T22:50:41.816Z,96300.80
2019-02-10T22:53:09.986Z,96302.24
2019-02-10T22:55:37.941Z,96304.03
2019-02-10T22:58:06.122Z,96307.70
2019-02-10T23:00:50.443Z,96302.91
2019-02-10T23:03:20.378Z,96306.02
2019-02-10T23:05:48.353Z,96328.20
2019-02-10T23:08:16.457Z,96343.62
2019-02-10T23:10:44.518Z,96348.88
2019-02-10T23:13:13.989Z,96351.08
2019-02-10T23:15:42.099Z,96358.66
2019-02-10T23:18:10.082Z,96382.73
2019-02-10T23:20:37.869Z,96402.32
2019-02-10T23:23:05.698Z,96392.17
2019-02-10T23:25:33.906Z,96399.53
2019-02-10T23:28:01.929Z,96429.42
2019-02-10T23:30:30.913Z,96425.91
2019-02-10T23:32:58.823Z,96439.38
2019-02-10T23:35:26.761Z,96466.09
2019-02-10T23:37:54.681Z,96485.02
2019-02-10T23:40:22.625Z,96495.09
2019-02-10T23:42:50.740Z,96501.84
2019-02-10T23:45:18.849Z,96511.81
2019-02-10T23:47:46.783Z,96516.15
2019-02-10T23:50:14.959Z,96519.89
2019-02-10T23:52:43.243Z,96514.25
2019-02-10T23:55:11.284Z,96527.79
2019-02-10T23:57:39.115Z,96525.24
